Time;durP1;ratioP1;P1;durP2;ratioP2;P2;SDS_P1;SDS_P2;PMS_P1;PMS_P2;Temp;Humidity;BMP_temperature;BMP_pressure;BME280_temperature;BME280_humidity;BME280_pressure;Samples;Min_cycle;Max_cycle;Signal;HPM_P1;HPM_P2
2022/05/19 00:01:01;;;;;;;3.72;2.20;;;;;;;;;;5084686;28;20030;-75
2022/05/19 00:03:24;;;;;;;3.92;2.10;;;;;;;;;;5082531;28;20389;-74
2022/05/19 00:05:50;;;;;;;6.80;2.40;;;;;;;;;;5083920;28;20035;-75
2022/05/19 00:08:16;;;;;;;3.40;2.35;;;;;;;;;;5081501;28;20036;-74
2022/05/19 00:10:45;;;;;;;5.43;2.20;;;;;;;;;;5096442;28;20377;-74
2022/05/19 00:13:17;;;;;;;3.78;2.30;;;;;;;;;;5094661;28;20035;-75
2022/05/19 00:15:43;;;;;;;3.72;2.15;;;;;;;;;;5079442;28;20091;-75
2022/05/19 00:18:09;;;;;;;4.32;2.17;;;;;;;;;;5094026;28;20035;-75
2022/05/19 00:20:35;;;;;;;4.32;2.30;;;;;;;;;;5093410;28;20047;-75
2022/05/19 00:23:01;;;;;;;2.25;2.00;;;;;;;;;;5077650;28;20036;-75
2022/05/19 00:25:27;;;;;;;5.72;2.40;;;;;;;;;;5086583;28;20028;-75
2022/05/19 00:27:53;;;;;;;4.15;2.60;;;;;;;;;;5093469;28;20086;-75
2022/05/19 00:30:19;;;;;;;6.18;2.20;;;;;;;;;;5091585;28;20035;-74
2022/05/19 00:32:46;;;;;;;3.60;2.13;;;;;;;;;;5079012;28;20043;-73
2022/05/19 00:35:12;;;;;;;6.13;2.28;;;;;;;;;;5083449;28;20064;-74
2022/05/19 00:37:38;;;;;;;3.58;2.05;;;;;;;;;;5078622;28;20031;-74
2022/05/19 00:40:04;;;;;;;2.45;1.90;;;;;;;;;;5092810;28;20101;-74
2022/05/19 00:42:45;;;;;;;4.40;2.08;;;;;;;;;;5085659;28;20024;-75
2022/05/19 00:45:16;;;;;;;6.00;2.28;;;;;;;;;;5075163;28;20460;-75
2022/05/19 00:47:46;;;;;;;4.45;2.13;;;;;;;;;;5078668;28;20401;-75
2022/05/19 00:50:19;;;;;;;4.13;2.05;;;;;;;;;;5093925;28;20077;-75
2022/05/19 00:52:45;;;;;;;;;;;;;;;;;;5076153;28;20040;-74
2022/05/19 00:55:14;;;;;;;5.95;2.42;;;;;;;;;;5089676;28;19973;-75
2022/05/19 00:57:49;;;;;;;3.90;1.90;;;;;;;;;;5089990;28;20016;-75
2022/05/19 01:00:17;;;;;;;5.65;2.20;;;;;;;;;;5079231;28;20024;-75
2022/05/19 01:02:48;;;;;;;4.32;2.10;;;;;;;;;;5081787;28;20032;-75
2022/05/19 01:05:15;;;;;;;4.72;2.17;;;;;;;;;;5077603;28;20020;-75
2022/05/19 01:07:41;;;;;;;3.03;2.00;;;;;;;;;;5077519;28;20028;-75
2022/05/19 01:10:09;;;;;;;5.05;2.10;;;;;;;;;;5092974;28;20031;-75
2022/05/19 01:12:35;;;;;;;5.97;1.98;;;;;;;;;;5091170;28;20085;-75
2022/05/19 01:15:02;;;;;;;3.53;2.30;;;;;;;;;;5080710;28;20111;-74
2022/05/19 01:17:29;;;;;;;5.25;2.20;;;;;;;;;;5083585;28;20116;-74
2022/05/19 01:20:00;;;;;;;6.72;2.10;;;;;;;;;;5086037;28;20045;-73
2022/05/19 01:22:35;;;;;;;3.47;2.20;;;;;;;;;;5078644;28;20040;-74
2022/05/19 01:25:08;;;;;;;5.72;2.47;;;;;;;;;;5080626;28;20103;-73
2022/05/19 01:27:34;;;;;;;6.40;2.28;;;;;;;;;;5093519;28;20043;-74
2022/05/19 01:30:00;;;;;;;4.60;1.92;;;;;;;;;;5090809;28;20025;-74
2022/05/19 01:32:27;;;;;;;8.32;2.38;;;;;;;;;;5085468;28;20482;-74
2022/05/19 01:34:54;;;;;;;4.53;2.25;;;;;;;;;;5075509;28;20691;-74
2022/05/19 01:37:20;;;;;;;3.97;2.17;;;;;;;;;;5091056;28;20423;-74
2022/05/19 01:39:52;;;;;;;4.85;1.90;;;;;;;;;;5094328;28;20051;-74
2022/05/19 01:42:37;;;;;;;4.40;2.17;;;;;;;;;;5081661;28;20035;-74
2022/05/19 01:45:09;;;;;;;3.15;2.03;;;;;;;;;;5075148;28;20070;-74
2022/05/19 01:47:41;;;;;;;3.13;2.10;;;;;;;;;;5088422;28;20040;-74
2022/05/19 01:50:21;;;;;;;4.13;2.28;;;;;;;;;;5094317;28;20020;-75
2022/05/19 01:52:54;;;;;;;3.72;1.90;;;;;;;;;;5090416;28;20148;-74
2022/05/19 01:55:20;;;;;;;3.85;2.30;;;;;;;;;;5076387;28;20038;-75
2022/05/19 01:57:53;;;;;;;6.38;2.63;;;;;;;;;;5092892;28;20020;-74
2022/05/19 02:00:21;;;;;;;3.97;2.13;;;;;;;;;;5085103;28;20021;-74
2022/05/19 02:02:56;;;;;;;2.63;1.83;;;;;;;;;;5083108;28;20035;-75
2022/05/19 02:05:31;;;;;;;6.35;2.10;;;;;;;;;;5074685;28;20142;-75
2022/05/19 02:07:59;;;;;;;5.60;2.20;;;;;;;;;;5077817;28;20156;-75
2022/05/19 02:10:27;;;;;;;4.03;2.00;;;;;;;;;;5093731;28;20032;-74
2022/05/19 02:12:57;;;;;;;6.13;2.20;;;;;;;;;;5085577;28;20024;-74
2022/05/19 02:15:25;;;;;;;2.78;2.05;;;;;;;;;;5078124;28;20630;-75
2022/05/19 02:17:53;;;;;;;4.47;1.95;;;;;;;;;;5074667;28;20020;-75
2022/05/19 02:20:21;;;;;;;6.07;2.10;;;;;;;;;;5093284;28;20528;-75
2022/05/19 02:22:49;;;;;;;3.50;2.00;;;;;;;;;;5092577;28;20055;-74
2022/05/19 02:25:41;;;;;;;2.95;1.90;;;;;;;;;;5090146;28;20140;-75
2022/05/19 02:28:10;;;;;;;4.78;2.15;;;;;;;;;;5086201;28;20109;-74
2022/05/19 02:30:38;;;;;;;5.07;2.00;;;;;;;;;;5081218;28;20558;-74
2022/05/19 02:33:04;;;;;;;4.03;2.28;;;;;;;;;;5092127;28;20036;-74
2022/05/19 02:35:30;;;;;;;2.72;2.10;;;;;;;;;;5089680;28;20032;-73
2022/05/19 02:37:57;;;;;;;8.75;2.35;;;;;;;;;;5090933;28;20038;-73
2022/05/19 02:40:24;;;;;;;4.80;2.20;;;;;;;;;;5091569;28;20034;-75
2022/05/19 02:42:50;;;;;;;3.92;2.10;;;;;;;;;;5093021;28;20054;-75
2022/05/19 02:45:19;;;;;;;3.90;1.98;;;;;;;;;;5087101;28;20460;-75
2022/05/19 02:47:50;;;;;;;2.65;2.00;;;;;;;;;;5088806;28;20034;-75
2022/05/19 02:50:17;;;;;;;3.38;2.10;;;;;;;;;;5081352;28;20039;-74
2022/05/19 02:52:43;;;;;;;7.25;2.25;;;;;;;;;;5091539;28;20059;-74
2022/05/19 02:55:10;;;;;;;7.60;2.33;;;;;;;;;;5093014;28;20028;-75
2022/05/19 02:57:37;;;;;;;4.30;2.00;;;;;;;;;;5075114;28;20389;-75
2022/05/19 03:00:04;;;;;;;4.68;2.10;;;;;;;;;;5072308;28;20052;-74
2022/05/19 03:02:30;;;;;;;5.03;2.35;;;;;;;;;;5087562;28;20511;-75
2022/05/19 03:04:56;;;;;;;3.85;2.00;;;;;;;;;;5092652;28;20032;-75
2022/05/19 03:07:22;;;;;;;5.78;1.98;;;;;;;;;;5090891;28;20027;-74
2022/05/19 03:09:49;;;;;;;3.03;2.20;;;;;;;;;;5091069;28;20024;-75
2022/05/19 03:12:15;;;;;;;3.00;2.00;;;;;;;;;;5089936;28;20040;-75
2022/05/19 03:14:41;;;;;;;3.60;2.00;;;;;;;;;;5092624;28;20481;-74
2022/05/19 03:17:08;;;;;;;4.63;2.13;;;;;;;;;;5084641;28;20025;-75
2022/05/19 03:19:34;;;;;;;4.38;2.00;;;;;;;;;;5082667;28;20070;-75
2022/05/19 03:22:00;;;;;;;9.00;2.53;;;;;;;;;;5077898;28;20050;-74
2022/05/19 03:24:26;;;;;;;6.10;2.60;;;;;;;;;;5089231;28;20035;-74
2022/05/19 03:26:52;;;;;;;6.32;2.10;;;;;;;;;;5090744;28;20097;-75
2022/05/19 03:29:19;;;;;;;6.60;2.30;;;;;;;;;;5088414;28;20113;-73
2022/05/19 03:31:45;;;;;;;3.00;2.08;;;;;;;;;;5091147;28;20124;-73
2022/05/19 03:34:11;;;;;;;5.72;2.28;;;;;;;;;;5080318;28;20058;-74
2022/05/19 03:36:38;;;;;;;6.00;2.10;;;;;;;;;;5075873;28;20024;-74
2022/05/19 03:39:04;;;;;;;6.53;2.50;;;;;;;;;;5073557;28;20481;-74
2022/05/19 03:41:30;;;;;;;4.63;2.15;;;;;;;;;;5086860;28;20026;-74
2022/05/19 03:43:56;;;;;;;5.97;2.33;;;;;;;;;;5085042;28;20059;-74
2022/05/19 03:46:22;;;;;;;4.47;2.20;;;;;;;;;;5092476;28;20077;-75
2022/05/19 03:48:48;;;;;;;4.10;2.10;;;;;;;;;;5090886;28;20028;-75
2022/05/19 03:51:27;;;;;;;3.30;2.00;;;;;;;;;;5086177;28;20027;-75
2022/05/19 03:53:53;;;;;;;3.60;2.05;;;;;;;;;;5072666;28;20074;-74
2022/05/19 03:56:21;;;;;;;5.72;2.42;;;;;;;;;;5091314;28;20031;-74
2022/05/19 03:58:48;;;;;;;3.03;2.00;;;;;;;;;;5083239;28;20427;-73
2022/05/19 04:01:14;;;;;;;8.10;2.38;;;;;;;;;;5079471;28;20025;-74
2022/05/19 04:03:40;;;;;;;14.25;3.10;;;;;;;;;;5078592;28;20066;-75
2022/05/19 04:06:06;;;;;;;6.20;2.30;;;;;;;;;;5084398;28;20119;-74
2022/05/19 04:08:32;;;;;;;7.47;2.30;;;;;;;;;;5085627;28;20032;-75
2022/05/19 04:11:01;;;;;;;4.60;2.10;;;;;;;;;;5083941;28;20073;-75
2022/05/19 04:13:27;;;;;;;7.47;2.30;;;;;;;;;;5090472;28;20500;-74
2022/05/19 04:15:53;;;;;;;10.43;2.33;;;;;;;;;;5090335;28;20030;-73
2022/05/19 04:18:19;;;;;;;11.32;2.55;;;;;;;;;;5086502;28;20062;-74
2022/05/19 04:20:45;;;;;;;13.73;2.45;;;;;;;;;;5083270;28;20044;-73
2022/05/19 04:23:12;;;;;;;8.98;3.30;;;;;;;;;;5075545;28;20025;-76
2022/05/19 04:25:38;;;;;;;9.15;2.67;;;;;;;;;;5071435;28;20486;-74
2022/05/19 04:28:07;;;;;;;7.55;2.83;;;;;;;;;;5081553;28;20028;-75
2022/05/19 04:30:33;;;;;;;4.40;2.25;;;;;;;;;;5088146;28;20025;-74
2022/05/19 04:33:02;;;;;;;5.38;3.03;;;;;;;;;;5093175;28;20016;-74
2022/05/19 04:35:28;;;;;;;5.28;2.85;;;;;;;;;;5083170;28;20048;-75
2022/05/19 04:37:56;;;;;;;13.43;3.45;;;;;;;;;;5073868;28;20048;-74
2022/05/19 04:40:22;;;;;;;4.88;2.72;;;;;;;;;;5087842;28;20097;-74
2022/05/19 04:42:48;;;;;;;9.07;3.17;;;;;;;;;;5085664;28;20100;-75
2022/05/19 04:45:16;;;;;;;9.30;3.60;;;;;;;;;;5093641;28;20027;-74
2022/05/19 04:47:42;;;;;;;9.00;3.17;;;;;;;;;;5080460;28;20027;-73
2022/05/19 04:50:08;;;;;;;9.73;2.90;;;;;;;;;;5084123;28;20021;-79
2022/05/19 04:52:35;;;;;;;5.43;2.38;;;;;;;;;;5088296;28;20036;-79
2022/05/19 04:55:01;;;;;;;5.30;2.40;;;;;;;;;;5084267;28;20102;-82
2022/05/19 04:57:27;;;;;;;10.15;2.90;;;;;;;;;;5087554;28;20025;-76
2022/05/19 04:59:53;;;;;;;9.57;2.33;;;;;;;;;;5089766;28;20048;-82
2022/05/19 05:02:19;;;;;;;5.05;2.53;;;;;;;;;;5091088;28;20020;-77
2022/05/19 05:04:45;;;;;;;11.32;2.55;;;;;;;;;;5080746;28;20055;-79
2022/05/19 05:07:11;;;;;;;10.82;3.30;;;;;;;;;;5088663;28;20024;-80
2022/05/19 05:09:46;;;;;;;11.15;3.20;;;;;;;;;;5082444;28;20154;-81
2022/05/19 05:12:13;;;;;;;5.53;2.88;;;;;;;;;;5081099;28;20033;-73
2022/05/19 05:14:39;;;;;;;11.27;3.47;;;;;;;;;;5088197;28;20036;-77
2022/05/19 05:17:05;;;;;;;4.65;2.28;;;;;;;;;;5081485;28;20031;-77
2022/05/19 05:19:31;;;;;;;8.70;2.72;;;;;;;;;;5092472;28;20389;-75
2022/05/19 05:22:00;;;;;;;8.65;2.60;;;;;;;;;;5085720;28;20044;-78
2022/05/19 05:24:26;;;;;;;11.10;3.53;;;;;;;;;;5085325;28;20114;-72
2022/05/19 05:26:52;;;;;;;5.45;2.80;;;;;;;;;;5091166;28;20025;-75
2022/05/19 05:29:19;;;;;;;5.70;2.40;;;;;;;;;;5091406;28;20032;-75
2022/05/19 05:31:45;;;;;;;6.32;3.17;;;;;;;;;;5078861;28;20089;-75
2022/05/19 05:34:12;;;;;;;6.78;2.78;;;;;;;;;;5087022;28;20041;-89
2022/05/19 05:36:40;;;;;;;8.98;2.60;;;;;;;;;;5089151;28;20505;-81
2022/05/19 05:39:06;;;;;;;8.65;2.97;;;;;;;;;;5086416;28;20080;-73
2022/05/19 05:41:34;;;;;;;7.50;2.42;;;;;;;;;;5089916;28;20016;-74
2022/05/19 05:44:00;;;;;;;5.88;2.33;;;;;;;;;;5087742;28;20023;-83
2022/05/19 05:46:27;;;;;;;7.85;2.70;;;;;;;;;;5088325;28;20016;-85
2022/05/19 05:48:53;;;;;;;9.30;2.67;;;;;;;;;;5090778;28;20111;-77
2022/05/19 05:51:19;;;;;;;10.52;3.20;;;;;;;;;;5078230;28;20145;-82
2022/05/19 05:53:46;;;;;;;9.90;2.75;;;;;;;;;;5086456;28;20435;-77
2022/05/19 05:56:15;;;;;;;9.70;3.13;;;;;;;;;;5085027;28;20493;-78
2022/05/19 05:58:41;;;;;;;11.98;3.10;;;;;;;;;;5096069;28;20021;-80
2022/05/19 06:01:08;;;;;;;6.15;2.80;;;;;;;;;;5079621;28;20099;-75
2022/05/19 06:03:34;;;;;;;10.60;2.80;;;;;;;;;;5081786;28;20538;-76
2022/05/19 06:06:01;;;;;;;12.60;2.85;;;;;;;;;;5084381;28;20050;-74
2022/05/19 06:08:27;;;;;;;14.07;3.85;;;;;;;;;;5087192;28;20144;-75
2022/05/19 06:10:54;;;;;;;13.45;2.83;;;;;;;;;;5086777;28;20032;-75
2022/05/19 06:13:20;;;;;;;7.97;2.60;;;;;;;;;;5079272;28;20347;-74
2022/05/19 06:15:46;;;;;;;8.05;3.20;;;;;;;;;;5091604;28;20024;-78
2022/05/19 06:18:13;;;;;;;4.65;2.63;;;;;;;;;;5088476;28;20474;-75
2022/05/19 06:20:41;;;;;;;9.02;3.10;;;;;;;;;;5089465;28;20538;-75
2022/05/19 06:23:08;;;;;;;6.38;2.65;;;;;;;;;;5085789;28;20052;-77
2022/05/19 06:25:34;;;;;;;7.47;2.90;;;;;;;;;;5090953;28;20035;-75
2022/05/19 06:28:01;;;;;;;5.30;2.60;;;;;;;;;;5083719;28;20049;-76
2022/05/19 06:30:27;;;;;;;5.25;2.70;;;;;;;;;;5088509;28;20031;-75
2022/05/19 06:32:54;;;;;;;12.13;3.75;;;;;;;;;;5079178;28;20020;-73
2022/05/19 06:35:21;;;;;;;12.07;3.60;;;;;;;;;;5082023;28;20544;-73
2022/05/19 06:37:47;;;;;;;6.82;3.15;;;;;;;;;;5090585;28;20024;-73
2022/05/19 06:40:15;;;;;;;11.75;3.80;;;;;;;;;;5082139;28;20027;-76
2022/05/19 06:42:41;;;;;;;6.13;2.92;;;;;;;;;;5078437;28;20020;-76
2022/05/19 06:45:08;;;;;;;6.38;2.92;;;;;;;;;;5087655;28;20024;-74
2022/05/19 06:47:35;;;;;;;9.23;2.88;;;;;;;;;;5082610;28;20447;-74
2022/05/19 06:50:02;;;;;;;14.98;3.08;;;;;;;;;;5085425;28;20048;-73
2022/05/19 06:52:29;;;;;;;7.88;2.85;;;;;;;;;;5079733;28;20036;-76
2022/05/19 06:54:57;;;;;;;9.32;3.35;;;;;;;;;;5085726;28;20028;-83
2022/05/19 06:57:24;;;;;;;8.30;3.15;;;;;;;;;;5086562;28;20066;-77
2022/05/19 06:59:51;;;;;;;7.65;2.78;;;;;;;;;;5091858;28;20023;-81
2022/05/19 07:02:18;;;;;;;8.00;2.83;;;;;;;;;;5087074;28;20065;-83
2022/05/19 07:04:44;;;;;;;9.23;3.00;;;;;;;;;;5086927;28;20066;-86
2022/05/19 07:07:10;;;;;;;15.02;3.53;;;;;;;;;;5071552;22;20060;-82
2022/05/19 07:09:37;;;;;;;9.20;3.55;;;;;;;;;;5057604;28;20017;-77
2022/05/19 07:12:04;;;;;;;9.73;3.00;;;;;;;;;;5063718;28;20036;-82
2022/05/19 07:14:31;;;;;;;10.88;3.45;;;;;;;;;;5050913;28;20450;-79
2022/05/19 07:16:57;;;;;;;10.02;3.30;;;;;;;;;;5062892;28;20018;-81
2022/05/19 07:22:13;;;;;;;11.93;3.00;;;;;;;;;;5043777;28;20050;-74
2022/05/19 07:24:40;;;;;;;;;;;;;;;;;;5064988;28;20099;-74
2022/05/19 07:27:07;;;;;;;13.57;3.28;;;;;;;;;;5055822;28;19912;-81
2022/05/19 07:29:33;;;;;;;8.70;3.05;;;;;;;;;;5055648;28;20471;-79
2022/05/19 07:32:06;;;;;;;6.95;2.90;;;;;;;;;;5036090;22;20048;-72
2022/05/19 07:34:33;;;;;;;5.25;2.90;;;;;;;;;;5081799;28;20051;-82
2022/05/19 07:37:00;;;;;;;14.60;3.20;;;;;;;;;;5107496;28;20028;-88
2022/05/19 07:39:28;;;;;;;6.88;2.90;;;;;;;;;;5091744;28;20056;-77
2022/05/19 07:41:55;;;;;;;7.38;2.60;;;;;;;;;;5103366;28;20172;-80
2022/05/19 07:44:21;;;;;;;26.15;4.00;;;;;;;;;;5093958;28;20024;-87
2022/05/19 07:46:48;;;;;;;11.45;2.88;;;;;;;;;;5093658;28;20020;-84
2022/05/19 07:49:16;;;;;;;10.55;2.70;;;;;;;;;;5089838;28;20024;-80
2022/05/19 07:51:44;;;;;;;8.05;2.63;;;;;;;;;;5090804;28;20045;-74
2022/05/19 07:54:11;;;;;;;6.03;2.50;;;;;;;;;;5086024;28;20085;-81
2022/05/19 07:56:38;;;;;;;8.20;2.70;;;;;;;;;;5089810;28;20035;-74
2022/05/19 07:59:04;;;;;;;12.27;3.05;;;;;;;;;;5089706;28;20026;-75
2022/05/19 08:01:31;;;;;;;3.40;2.30;;;;;;;;;;5083102;28;20500;-84
2022/05/19 08:03:57;;;;;;;8.63;2.40;;;;;;;;;;5099231;28;20032;-77
2022/05/19 08:06:24;;;;;;;11.60;2.63;;;;;;;;;;5095536;28;20030;-75
2022/05/19 08:08:51;;;;;;;9.23;2.67;;;;;;;;;;5094569;28;20388;-75
2022/05/19 08:11:18;;;;;;;8.75;2.30;;;;;;;;;;5086756;28;20385;-77
2022/05/19 08:16:28;;;;;;;8.27;2.72;;;;;;;;;;5089176;28;20046;-72
2022/05/19 08:18:55;;;;;;;7.15;2.33;;;;;;;;;;5091264;28;20068;-73
2022/05/19 08:21:21;;;;;;;3.67;1.75;;;;;;;;;;5094126;28;20214;-74
2022/05/19 08:23:50;;;;;;;3.88;1.73;;;;;;;;;;5095318;28;20028;-74
2022/05/19 08:26:17;;;;;;;4.82;1.85;;;;;;;;;;5087762;28;20456;-74
2022/05/19 08:28:44;;;;;;;4.65;1.90;;;;;;;;;;5099690;28;20111;-74
2022/05/19 08:31:17;;;;;;;7.68;2.13;;;;;;;;;;5093482;28;20020;-73
2022/05/19 08:33:44;;;;;;;5.38;2.17;;;;;;;;;;5074368;28;20041;-73
2022/05/19 08:36:11;;;;;;;5.82;2.58;;;;;;;;;;5067962;28;20020;-72
2022/05/19 08:38:37;;;;;;;8.50;2.35;;;;;;;;;;5081263;28;20063;-72
2022/05/19 08:41:06;;;;;;;5.43;2.10;;;;;;;;;;5090644;28;20551;-72
2022/05/19 08:43:45;;;;;;;8.68;2.30;;;;;;;;;;5078818;28;20035;-72
2022/05/19 08:46:14;;;;;;;4.28;2.30;;;;;;;;;;5075263;28;20511;-72
2022/05/19 08:48:41;;;;;;;6.18;2.20;;;;;;;;;;5077444;28;20032;-73
2022/05/19 08:51:07;;;;;;;5.88;2.13;;;;;;;;;;5085393;28;20047;-73
2022/05/19 08:53:40;;;;;;;8.18;2.53;;;;;;;;;;5093682;28;20028;-72
2022/05/19 08:56:26;;;;;;;14.37;2.80;;;;;;;;;;5074933;28;20110;-72
2022/05/19 08:58:55;;;;;;;9.43;2.40;;;;;;;;;;5073494;28;20020;-73
2022/05/19 09:01:24;;;;;;;7.18;2.38;;;;;;;;;;5079317;28;20024;-73
2022/05/19 09:03:59;;;;;;;6.05;2.28;;;;;;;;;;5083529;28;20417;-73
2022/05/19 09:07:56;;;;;;;2.85;2.00;;;;;;;;;;5081491;28;20025;-72
2022/05/19 09:09:32;;;;;;;3.85;2.20;;;;;;;;;;5072153;28;20477;-73
2022/05/19 09:12:04;;;;;;;8.25;2.20;;;;;;;;;;5081570;28;20382;-73
2022/05/19 09:14:30;;;;;;;5.30;2.10;;;;;;;;;;5076611;28;20028;-74
2022/05/19 09:17:00;;;;;;;7.28;2.10;;;;;;;;;;5076040;28;20355;-74
2022/05/19 09:19:29;;;;;;;4.35;2.00;;;;;;;;;;5082650;28;20142;-74
2022/05/19 09:22:02;;;;;;;4.35;2.97;;;;;;;;;;5076699;28;20450;-73
2022/05/19 09:24:28;;;;;;;6.63;2.10;;;;;;;;;;5084242;28;20086;-74
2022/05/19 09:26:55;;;;;;;3.05;2.08;;;;;;;;;;5076351;28;20070;-74
2022/05/19 09:29:36;;;;;;;4.57;2.55;;;;;;;;;;5073124;28;20105;-74
2022/05/19 09:32:13;;;;;;;7.28;2.33;;;;;;;;;;5074818;28;20082;-74
2022/05/19 09:34:52;;;;;;;7.10;2.20;;;;;;;;;;5077128;28;20415;-84
2022/05/19 09:37:35;;;;;;;4.53;2.25;;;;;;;;;;5069666;28;20461;-71
2022/05/19 09:40:08;;;;;;;3.72;2.03;;;;;;;;;;5073337;28;20529;-73
2022/05/19 09:42:54;;;;;;;4.68;1.92;;;;;;;;;;5077332;28;20029;-74
2022/05/19 09:45:21;;;;;;;5.15;2.00;;;;;;;;;;5074800;28;20046;-72
2022/05/19 09:47:50;;;;;;;5.65;1.85;;;;;;;;;;5078760;28;20470;-73
2022/05/19 09:50:41;;;;;;;6.25;2.20;;;;;;;;;;5067285;28;20028;-74
2022/05/19 09:53:14;;;;;;;10.52;2.47;;;;;;;;;;5076288;28;20549;-77
2022/05/19 09:55:41;;;;;;;7.70;2.37;;;;;;;;;;5083790;28;20069;-73
2022/05/19 09:58:10;;;;;;;6.75;2.10;;;;;;;;;;5077931;28;20474;-74
2022/05/19 10:00:37;;;;;;;5.53;2.38;;;;;;;;;;5084086;28;20024;-74
2022/05/19 10:03:09;;;;;;;6.80;1.95;;;;;;;;;;5078054;28;20024;-75
2022/05/19 10:05:47;;;;;;;5.85;2.10;;;;;;;;;;5089970;28;20016;-74
2022/05/19 10:08:20;;;;;;;7.07;1.92;;;;;;;;;;5108126;28;20028;-74
2022/05/19 10:10:55;;;;;;;5.38;1.92;;;;;;;;;;5099603;28;20031;-81
2022/05/19 10:13:34;;;;;;;4.78;1.98;;;;;;;;;;5079661;28;20111;-71
2022/05/19 10:16:03;;;;;;;5.95;2.08;;;;;;;;;;5076414;28;20037;-73
2022/05/19 10:18:44;;;;;;;5.15;1.90;;;;;;;;;;5081523;28;20107;-81
2022/05/19 10:21:13;;;;;;;6.40;2.10;;;;;;;;;;5076593;28;20477;-72
2022/05/19 10:23:39;;;;;;;2.63;1.80;;;;;;;;;;5073881;28;20066;-67
2022/05/19 10:26:20;;;;;;;7.30;2.15;;;;;;;;;;5072436;28;20028;-69
2022/05/19 10:32:03;;;;;;;7.25;2.30;;;;;;;;;;5083942;28;20394;-75
2022/05/19 10:34:45;;;;;;;6.72;2.20;;;;;;;;;;5070817;28;20127;-67
2022/05/19 10:37:17;;;;;;;3.92;2.13;;;;;;;;;;5064141;28;20051;-78
2022/05/19 10:39:55;;;;;;;20.77;2.80;;;;;;;;;;5071547;28;20099;-74
2022/05/19 10:42:25;;;;;;;9.88;2.88;;;;;;;;;;5073227;28;20024;-78
2022/05/19 10:45:15;;;;;;;11.40;2.53;;;;;;;;;;5072770;28;20024;-80
2022/05/19 10:48:04;;;;;;;4.90;3.22;;;;;;;;;;5076404;28;20013;-89
2022/05/19 10:50:44;;;;;;;6.80;1.95;;;;;;;;;;5072580;28;20037;-74
2022/05/19 10:53:12;;;;;;;7.13;3.10;;;;;;;;;;5075329;28;20152;-74
2022/05/19 10:55:38;;;;;;;7.25;2.20;;;;;;;;;;5071781;28;20038;-74
2022/05/19 10:58:20;;;;;;;10.73;2.53;;;;;;;;;;5072431;28;20036;-84
2022/05/19 11:00:58;;;;;;;5.35;1.70;;;;;;;;;;5082945;28;20085;-74
2022/05/19 11:03:32;;;;;;;2.97;1.92;;;;;;;;;;5068148;28;20065;-74
2022/05/19 11:05:59;;;;;;;6.30;2.10;;;;;;;;;;5078308;28;20082;-74
2022/05/19 11:09:03;;;;;;;3.55;1.95;;;;;;;;;;5085591;28;20031;-74
2022/05/19 11:11:48;;;;;;;3.35;1.95;;;;;;;;;;4990910;28;20533;-73
2022/05/19 11:14:32;;;;;;;4.75;2.20;;;;;;;;;;4990688;28;20053;-72
2022/05/19 11:16:58;;;;;;;2.83;2.03;;;;;;;;;;4992658;28;20049;-73
2022/05/19 11:19:36;;;;;;;5.38;2.20;;;;;;;;;;4992103;28;20086;-72
2022/05/19 11:22:05;;;;;;;4.93;1.90;;;;;;;;;;4992919;28;20043;-76
2022/05/19 11:27:30;;;;;;;7.47;2.10;;;;;;;;;;4985631;28;20511;-73
2022/05/19 11:29:59;;;;;;;5.55;2.03;;;;;;;;;;4991087;28;20042;-73
2022/05/19 11:32:36;;;;;;;3.28;1.90;;;;;;;;;;4989916;28;20035;-72
2022/05/19 11:35:03;;;;;;;6.80;2.28;;;;;;;;;;4990392;28;20073;-73
2022/05/19 11:37:41;;;;;;;10.65;2.35;;;;;;;;;;4990644;28;20035;-72
2022/05/19 11:40:11;;;;;;;4.93;1.92;;;;;;;;;;4992406;28;20059;-73
2022/05/19 11:42:38;;;;;;;22.50;3.33;;;;;;;;;;5058563;28;20036;-73
2022/05/19 11:45:06;;;;;;;5.40;2.13;;;;;;;;;;5064633;28;20073;-74
2022/05/19 11:56:10;;;;;;;5.03;2.20;;;;;;;;;;5078908;28;20043;-73
2022/05/19 11:58:38;;;;;;;4.65;1.98;;;;;;;;;;5072352;28;20474;-74
2022/05/19 12:01:10;;;;;;;5.72;2.20;;;;;;;;;;5090836;28;20095;-73
2022/05/19 12:03:43;;;;;;;8.10;3.22;;;;;;;;;;5076022;28;20025;-72
2022/05/19 12:06:13;;;;;;;;;;;;;;;;;;5082981;28;20043;-73
2022/05/19 12:08:46;;;;;;;36.28;3.67;;;;;;;;;;5090346;28;19908;-72
2022/05/19 12:11:21;;;;;;;6.22;2.25;;;;;;;;;;5077950;28;20016;-72
2022/05/19 12:13:49;;;;;;;9.73;3.22;;;;;;;;;;5076240;28;20031;-72
2022/05/19 12:16:18;;;;;;;4.78;2.10;;;;;;;;;;5086424;28;20020;-72
2022/05/19 12:18:44;;;;;;;3.90;1.90;;;;;;;;;;5090973;28;20466;-73
2022/05/19 12:21:15;;;;;;;5.15;2.30;;;;;;;;;;5075376;28;20457;-74
2022/05/19 12:23:42;;;;;;;4.47;2.25;;;;;;;;;;5077915;28;20359;-72
2022/05/19 12:26:14;;;;;;;10.23;2.63;;;;;;;;;;5085714;28;20027;-72
2022/05/19 12:28:42;;;;;;;5.30;2.28;;;;;;;;;;5078108;28;20110;-71
2022/05/19 12:34:20;;;;;;;30.42;4.65;;;;;;;;;;5080062;28;20137;-72
2022/05/19 12:36:50;;;;;;;19.25;3.47;;;;;;;;;;5085523;28;20028;-72
2022/05/19 12:39:16;;;;;;;5.47;2.45;;;;;;;;;;5086693;28;20021;-72
2022/05/19 12:41:48;;;;;;;4.15;2.28;;;;;;;;;;5075514;28;20021;-71
2022/05/19 12:44:28;;;;;;;9.90;2.65;;;;;;;;;;5077791;28;20051;-72
2022/05/19 12:46:58;;;;;;;3.63;2.20;;;;;;;;;;5087381;28;20127;-72
2022/05/19 12:49:26;;;;;;;3.85;2.20;;;;;;;;;;5081958;28;20031;-73
2022/05/19 12:51:52;;;;;;;4.35;2.28;;;;;;;;;;5084909;28;20474;-72
2022/05/19 12:54:19;;;;;;;9.23;2.88;;;;;;;;;;5080341;28;20048;-75
2022/05/19 12:56:48;;;;;;;5.65;2.45;;;;;;;;;;5076838;28;20024;-71
2022/05/19 12:59:23;;;;;;;6.22;2.85;;;;;;;;;;5084481;28;20051;-71
2022/05/19 13:01:50;;;;;;;4.80;2.70;;;;;;;;;;5066886;28;20025;-72
2022/05/19 13:04:24;;;;;;;6.30;2.75;;;;;;;;;;5076634;28;20043;-72
2022/05/19 13:06:53;;;;;;;4.43;2.30;;;;;;;;;;5084650;28;20154;-72
2022/05/19 13:09:21;;;;;;;4.15;2.63;;;;;;;;;;5089804;28;20024;-73
2022/05/19 13:11:53;;;;;;;5.68;2.40;;;;;;;;;;5081357;28;20070;-72
2022/05/19 13:14:21;;;;;;;5.43;2.40;;;;;;;;;;5081597;28;20406;-71
2022/05/19 13:16:51;;;;;;;5.38;2.53;;;;;;;;;;5077608;28;20055;-72
2022/05/19 13:19:31;;;;;;;2.70;2.17;;;;;;;;;;5077674;28;20016;-72
2022/05/19 13:22:01;;;;;;;6.40;2.70;;;;;;;;;;5084100;28;21705;-73
2022/05/19 13:24:42;;;;;;;6.40;2.70;;;;;;;;;;5083655;28;20016;-78
2022/05/19 13:30:21;;;;;;;5.78;2.88;;;;;;;;;;5086046;28;20039;-73
2022/05/19 13:32:47;;;;;;;3.30;2.50;;;;;;;;;;5076490;28;20047;-74
2022/05/19 13:35:13;;;;;;;17.73;3.30;;;;;;;;;;5080837;28;20047;-70
2022/05/19 13:37:40;;;;;;;15.60;3.30;;;;;;;;;;5077114;28;20020;-72
2022/05/19 13:40:18;;;;;;;14.88;3.00;;;;;;;;;;5084499;28;20024;-70
2022/05/19 13:42:52;;;;;;;5.60;2.60;;;;;;;;;;5082118;28;20027;-71
2022/05/19 13:45:22;;;;;;;9.25;2.70;;;;;;;;;;5076864;28;20024;-71
2022/05/19 13:47:48;;;;;;;6.60;2.58;;;;;;;;;;5088644;28;20036;-70
2022/05/19 13:50:35;;;;;;;5.45;2.55;;;;;;;;;;5093904;28;20020;-72
2022/05/19 13:53:04;;;;;;;4.50;2.72;;;;;;;;;;5080021;28;20155;-70
2022/05/19 13:55:32;;;;;;;5.85;2.35;;;;;;;;;;5075401;28;20079;-75
2022/05/19 13:58:05;;;;;;;4.45;2.22;;;;;;;;;;5075990;28;20032;-87
2022/05/19 14:00:37;;;;;;;6.45;2.58;;;;;;;;;;5079556;28;20025;-75
2022/05/19 14:03:04;;;;;;;8.07;2.65;;;;;;;;;;5074825;28;20379;-78
2022/05/19 14:05:44;;;;;;;8.07;2.90;;;;;;;;;;5074730;28;20108;-73
2022/05/19 14:08:14;;;;;;;3.45;2.42;;;;;;;;;;5081785;28;20024;-71
2022/05/19 14:10:42;;;;;;;8.90;2.50;;;;;;;;;;5074930;28;20075;-70
2022/05/19 14:13:11;;;;;;;6.63;2.70;;;;;;;;;;5076114;28;20470;-73
2022/05/19 14:15:39;;;;;;;4.53;2.53;;;;;;;;;;5077262;28;20059;-74
2022/05/19 14:18:11;;;;;;;9.20;3.08;;;;;;;;;;5057447;28;20031;-82
2022/05/19 14:20:40;;;;;;;7.93;3.08;;;;;;;;;;5086997;28;20084;-70
2022/05/19 14:23:25;;;;;;;11.43;3.40;;;;;;;;;;5076769;28;20040;-70
2022/05/19 14:28:48;;;;;;;7.65;2.92;;;;;;;;;;5071591;28;20083;-87
2022/05/19 14:31:51;;;;;;;10.60;3.03;;;;;;;;;;5082919;28;20028;-82
2022/05/19 14:34:25;;;;;;;10.63;3.17;;;;;;;;;;5074877;28;20049;-87
2022/05/19 14:36:57;;;;;;;27.92;4.18;;;;;;;;;;5065403;28;20078;-88
2022/05/19 14:43:15;;;;;;;8.90;2.60;;;;;;;;;;4966436;28;20042;-89
2022/05/19 14:45:44;;;;;;;6.97;2.70;;;;;;;;;;4968104;28;20041;-87
2022/05/19 14:48:28;;;;;;;5.15;2.70;;;;;;;;;;4955602;28;20110;-76
2022/05/19 14:50:56;;;;;;;9.35;3.20;;;;;;;;;;4967467;28;20034;-87
2022/05/19 14:53:24;;;;;;;6.15;2.75;;;;;;;;;;4953410;28;20203;-81
2022/05/19 14:56:11;;;;;;;6.65;2.88;;;;;;;;;;4969474;28;20034;-86
2022/05/19 14:58:40;;;;;;;5.53;2.90;;;;;;;;;;4966564;28;20043;-85
2022/05/19 15:01:09;;;;;;;8.23;3.05;;;;;;;;;;4953941;28;20046;-73
2022/05/19 15:03:35;;;;;;;6.82;2.78;;;;;;;;;;4962200;28;20034;-72
2022/05/19 15:06:02;;;;;;;6.05;2.40;;;;;;;;;;4949141;28;20039;-73
2022/05/19 15:08:34;;;;;;;5.80;2.60;;;;;;;;;;4942129;29;20034;-71
2022/05/19 15:11:04;;;;;;;5.55;2.60;;;;;;;;;;4951118;28;20480;-73
2022/05/19 15:13:32;;;;;;;10.10;2.40;;;;;;;;;;4959309;28;20063;-72
2022/05/19 15:15:58;;;;;;;5.75;2.50;;;;;;;;;;4969219;28;20113;-73
2022/05/19 15:18:25;;;;;;;8.05;2.83;;;;;;;;;;4999836;28;20084;-73
2022/05/19 15:20:51;;;;;;;5.72;2.55;;;;;;;;;;5077414;28;20060;-73
2022/05/19 15:26:18;;;;;;;5.00;2.33;;;;;;;;;;5012976;28;20030;-73
2022/05/19 15:28:53;;;;;;;10.32;2.60;;;;;;;;;;5009439;28;20033;-76
2022/05/19 15:31:19;;;;;;;3.45;2.50;;;;;;;;;;4992542;28;20037;-72
2022/05/19 15:33:45;;;;;;;7.68;2.70;;;;;;;;;;5019538;28;20092;-74